sensor_id;sensor_type;location;lat;lon;timestamp;P1;durP1;ratioP1;P2;durP2;ratioP2
23730;SDS011;12046;44.702;10.622;2022-07-10T00:01:52;1.60;;;0.88;;
23730;SDS011;12046;44.702;10.622;2022-07-10T00:04:18;3.10;;;1.20;;
23730;SDS011;12046;44.702;10.622;2022-07-10T00:06:46;3.33;;;1.05;;
23730;SDS011;12046;44.702;10.622;2022-07-10T00:09:13;3.67;;;1.17;;
23730;SDS011;12046;44.702;10.622;2022-07-10T00:11:39;3.72;;;1.20;;
23730;SDS011;12046;44.702;10.622;2022-07-10T00:14:06;4.38;;;1.17;;
23730;SDS011;12046;44.702;10.622;2022-07-10T00:16:32;3.35;;;1.30;;
23730;SDS011;12046;44.702;10.622;2022-07-10T00:18:58;4.18;;;1.23;;
23730;SDS011;12046;44.702;10.622;2022-07-10T00:21:24;2.20;;;1.05;;
23730;SDS011;12046;44.702;10.622;2022-07-10T00:23:49;2.35;;;1.30;;
23730;SDS011;12046;44.702;10.622;2022-07-10T00:26:15;3.90;;;1.08;;
23730;SDS011;12046;44.702;10.622;2022-07-10T00:28:41;4.68;;;1.35;;
23730;SDS011;12046;44.702;10.622;2022-07-10T00:31:07;2.03;;;1.15;;
23730;SDS011;12046;44.702;10.622;2022-07-10T00:33:36;0.93;;;0.88;;
23730;SDS011;12046;44.702;10.622;2022-07-10T00:36:03;1.58;;;1.00;;
23730;SDS011;12046;44.702;10.622;2022-07-10T00:38:30;3.33;;;0.95;;
23730;SDS011;12046;44.702;10.622;2022-07-10T00:40:56;1.58;;;0.77;;
23730;SDS011;12046;44.702;10.622;2022-07-10T00:43:22;1.20;;;0.93;;
23730;SDS011;12046;44.702;10.622;2022-07-10T00:45:48;1.50;;;1.30;;
23730;SDS011;12046;44.702;10.622;2022-07-10T00:48:15;2.63;;;1.10;;
23730;SDS011;12046;44.702;10.622;2022-07-10T00:50:44;2.88;;;1.20;;
23730;SDS011;12046;44.702;10.622;2022-07-10T00:53:14;1.58;;;1.48;;
23730;SDS011;12046;44.702;10.622;2022-07-10T00:55:40;3.10;;;2.03;;
23730;SDS011;12046;44.702;10.622;2022-07-10T00:58:07;3.08;;;1.75;;
23730;SDS011;12046;44.702;10.622;2022-07-10T01:00:35;3.67;;;1.55;;
23730;SDS011;12046;44.702;10.622;2022-07-10T01:03:03;3.70;;;1.30;;
23730;SDS011;12046;44.702;10.622;2022-07-10T01:05:29;2.80;;;1.30;;
23730;SDS011;12046;44.702;10.622;2022-07-10T01:07:55;2.33;;;1.55;;
23730;SDS011;12046;44.702;10.622;2022-07-10T01:10:21;4.15;;;1.10;;
23730;SDS011;12046;44.702;10.622;2022-07-10T01:12:47;2.60;;;1.38;;
23730;SDS011;12046;44.702;10.622;2022-07-10T01:15:13;2.65;;;1.15;;
23730;SDS011;12046;44.702;10.622;2022-07-10T01:17:39;3.25;;;0.90;;
23730;SDS011;12046;44.702;10.622;2022-07-10T01:20:08;2.95;;;0.80;;
23730;SDS011;12046;44.702;10.622;2022-07-10T01:22:38;2.35;;;1.17;;
23730;SDS011;12046;44.702;10.622;2022-07-10T01:25:04;3.40;;;0.90;;
23730;SDS011;12046;44.702;10.622;2022-07-10T01:27:31;1.17;;;0.98;;
23730;SDS011;12046;44.702;10.622;2022-07-10T01:29:57;3.80;;;1.20;;
23730;SDS011;12046;44.702;10.622;2022-07-10T01:32:24;2.70;;;0.90;;
23730;SDS011;12046;44.702;10.622;2022-07-10T01:34:50;3.45;;;1.58;;
23730;SDS011;12046;44.702;10.622;2022-07-10T01:37:16;3.20;;;1.10;;
23730;SDS011;12046;44.702;10.622;2022-07-10T01:39:42;2.35;;;1.10;;
23730;SDS011;12046;44.702;10.622;2022-07-10T01:42:07;2.40;;;0.95;;
23730;SDS011;12046;44.702;10.622;2022-07-10T01:44:33;0.98;;;0.85;;
23730;SDS011;12046;44.702;10.622;2022-07-10T01:46:59;2.70;;;1.20;;
23730;SDS011;12046;44.702;10.622;2022-07-10T01:49:26;4.22;;;1.13;;
23730;SDS011;12046;44.702;10.622;2022-07-10T01:51:51;2.15;;;1.10;;
23730;SDS011;12046;44.702;10.622;2022-07-10T01:54:17;2.13;;;0.93;;
23730;SDS011;12046;44.702;10.622;2022-07-10T01:56:43;2.42;;;1.10;;
23730;SDS011;12046;44.702;10.622;2022-07-10T01:59:09;3.97;;;1.10;;
23730;SDS011;12046;44.702;10.622;2022-07-10T02:01:35;4.97;;;1.05;;
23730;SDS011;12046;44.702;10.622;2022-07-10T02:04:02;1.83;;;1.00;;
23730;SDS011;12046;44.702;10.622;2022-07-10T02:06:46;2.80;;;0.90;;
23730;SDS011;12046;44.702;10.622;2022-07-10T02:09:12;5.45;;;1.23;;
23730;SDS011;12046;44.702;10.622;2022-07-10T02:11:40;8.32;;;1.33;;
23730;SDS011;12046;44.702;10.622;2022-07-10T02:14:06;2.75;;;1.25;;
23730;SDS011;12046;44.702;10.622;2022-07-10T02:16:33;3.00;;;1.00;;
23730;SDS011;12046;44.702;10.622;2022-07-10T02:19:01;3.28;;;1.00;;
23730;SDS011;12046;44.702;10.622;2022-07-10T02:21:27;2.00;;;1.10;;
23730;SDS011;12046;44.702;10.622;2022-07-10T02:23:53;2.30;;;1.30;;
23730;SDS011;12046;44.702;10.622;2022-07-10T02:26:19;2.10;;;1.00;;
23730;SDS011;12046;44.702;10.622;2022-07-10T02:28:45;3.90;;;1.58;;
23730;SDS011;12046;44.702;10.622;2022-07-10T02:31:11;1.52;;;1.00;;
23730;SDS011;12046;44.702;10.622;2022-07-10T02:33:37;4.38;;;1.20;;
23730;SDS011;12046;44.702;10.622;2022-07-10T02:36:03;2.92;;;1.48;;
23730;SDS011;12046;44.702;10.622;2022-07-10T02:38:30;5.22;;;1.42;;
23730;SDS011;12046;44.702;10.622;2022-07-10T02:40:55;3.67;;;1.40;;
23730;SDS011;12046;44.702;10.622;2022-07-10T02:43:21;1.48;;;1.15;;
23730;SDS011;12046;44.702;10.622;2022-07-10T02:45:47;2.70;;;1.20;;
23730;SDS011;12046;44.702;10.622;2022-07-10T02:48:16;3.92;;;1.48;;
23730;SDS011;12046;44.702;10.622;2022-07-10T02:50:43;2.58;;;1.20;;
23730;SDS011;12046;44.702;10.622;2022-07-10T02:53:09;1.10;;;0.95;;
23730;SDS011;12046;44.702;10.622;2022-07-10T02:55:35;1.55;;;1.00;;
23730;SDS011;12046;44.702;10.622;2022-07-10T02:58:01;2.22;;;1.00;;
23730;SDS011;12046;44.702;10.622;2022-07-10T03:00:27;2.33;;;1.40;;
23730;SDS011;12046;44.702;10.622;2022-07-10T03:02:54;1.50;;;0.90;;
23730;SDS011;12046;44.702;10.622;2022-07-10T03:05:20;8.25;;;1.25;;
23730;SDS011;12046;44.702;10.622;2022-07-10T03:07:49;1.50;;;1.10;;
23730;SDS011;12046;44.702;10.622;2022-07-10T03:10:15;5.90;;;1.65;;
23730;SDS011;12046;44.702;10.622;2022-07-10T03:12:41;2.05;;;1.20;;
23730;SDS011;12046;44.702;10.622;2022-07-10T03:15:07;2.10;;;1.58;;
23730;SDS011;12046;44.702;10.622;2022-07-10T03:17:34;1.67;;;1.17;;
23730;SDS011;12046;44.702;10.622;2022-07-10T03:19:59;1.58;;;1.13;;
23730;SDS011;12046;44.702;10.622;2022-07-10T03:22:26;2.53;;;1.10;;
23730;SDS011;12046;44.702;10.622;2022-07-10T03:24:53;4.57;;;1.10;;
23730;SDS011;12046;44.702;10.622;2022-07-10T03:27:20;0.80;;;0.80;;
23730;SDS011;12046;44.702;10.622;2022-07-10T03:29:45;1.50;;;0.95;;
23730;SDS011;12046;44.702;10.622;2022-07-10T03:32:11;3.90;;;1.08;;
23730;SDS011;12046;44.702;10.622;2022-07-10T03:34:40;1.67;;;1.00;;
23730;SDS011;12046;44.702;10.622;2022-07-10T03:37:05;2.25;;;0.93;;
23730;SDS011;12046;44.702;10.622;2022-07-10T03:39:32;3.90;;;1.30;;
23730;SDS011;12046;44.702;10.622;2022-07-10T03:41:58;2.90;;;0.93;;
23730;SDS011;12046;44.702;10.622;2022-07-10T03:44:24;2.75;;;1.33;;
23730;SDS011;12046;44.702;10.622;2022-07-10T03:46:50;2.63;;;1.00;;
23730;SDS011;12046;44.702;10.622;2022-07-10T03:49:16;2.85;;;1.02;;
23730;SDS011;12046;44.702;10.622;2022-07-10T03:51:42;0.80;;;0.70;;
23730;SDS011;12046;44.702;10.622;2022-07-10T03:54:08;3.08;;;0.88;;
23730;SDS011;12046;44.702;10.622;2022-07-10T03:56:34;2.65;;;1.27;;
23730;SDS011;12046;44.702;10.622;2022-07-10T03:59:18;2.45;;;1.20;;
23730;SDS011;12046;44.702;10.622;2022-07-10T04:01:44;1.50;;;0.90;;
23730;SDS011;12046;44.702;10.622;2022-07-10T04:04:10;2.17;;;1.05;;
23730;SDS011;12046;44.702;10.622;2022-07-10T04:06:36;3.45;;;1.30;;
23730;SDS011;12046;44.702;10.622;2022-07-10T04:09:05;2.35;;;1.10;;
23730;SDS011;12046;44.702;10.622;2022-07-10T04:11:31;1.52;;;0.98;;
23730;SDS011;12046;44.702;10.622;2022-07-10T04:13:57;4.15;;;1.40;;
23730;SDS011;12046;44.702;10.622;2022-07-10T04:16:23;1.92;;;1.27;;
23730;SDS011;12046;44.702;10.622;2022-07-10T04:18:49;2.10;;;1.13;;
23730;SDS011;12046;44.702;10.622;2022-07-10T04:21:15;4.07;;;1.20;;
23730;SDS011;12046;44.702;10.622;2022-07-10T04:23:41;1.52;;;1.10;;
23730;SDS011;12046;44.702;10.622;2022-07-10T04:26:07;1.88;;;1.35;;
23730;SDS011;12046;44.702;10.622;2022-07-10T04:28:33;2.20;;;1.10;;
23730;SDS011;12046;44.702;10.622;2022-07-10T04:30:59;1.73;;;1.20;;
23730;SDS011;12046;44.702;10.622;2022-07-10T04:33:25;1.55;;;1.42;;
23730;SDS011;12046;44.702;10.622;2022-07-10T04:35:54;2.38;;;1.13;;
23730;SDS011;12046;44.702;10.622;2022-07-10T04:38:19;1.40;;;1.30;;
23730;SDS011;12046;44.702;10.622;2022-07-10T04:40:45;3.00;;;1.60;;
23730;SDS011;12046;44.702;10.622;2022-07-10T04:43:11;2.00;;;1.08;;
23730;SDS011;12046;44.702;10.622;2022-07-10T04:45:37;1.75;;;1.10;;
23730;SDS011;12046;44.702;10.622;2022-07-10T04:48:04;2.42;;;1.50;;
23730;SDS011;12046;44.702;10.622;2022-07-10T04:50:30;1.45;;;1.10;;
23730;SDS011;12046;44.702;10.622;2022-07-10T04:52:56;3.15;;;1.50;;
23730;SDS011;12046;44.702;10.622;2022-07-10T04:55:22;1.30;;;1.17;;
23730;SDS011;12046;44.702;10.622;2022-07-10T04:57:49;4.00;;;1.48;;
23730;SDS011;12046;44.702;10.622;2022-07-10T05:00:15;1.38;;;1.13;;
23730;SDS011;12046;44.702;10.622;2022-07-10T05:02:42;3.00;;;1.23;;
23730;SDS011;12046;44.702;10.622;2022-07-10T05:05:08;1.25;;;1.05;;
23730;SDS011;12046;44.702;10.622;2022-07-10T05:07:34;2.90;;;1.35;;
23730;SDS011;12046;44.702;10.622;2022-07-10T05:10:00;1.65;;;1.33;;
23730;SDS011;12046;44.702;10.622;2022-07-10T05:12:26;2.53;;;1.67;;
23730;SDS011;12046;44.702;10.622;2022-07-10T05:14:52;3.15;;;1.83;;
23730;SDS011;12046;44.702;10.622;2022-07-10T05:17:18;3.47;;;1.80;;
23730;SDS011;12046;44.702;10.622;2022-07-10T05:19:44;3.00;;;1.50;;
23730;SDS011;12046;44.702;10.622;2022-07-10T05:22:10;6.45;;;1.55;;
23730;SDS011;12046;44.702;10.622;2022-07-10T05:24:36;3.85;;;1.90;;
23730;SDS011;12046;44.702;10.622;2022-07-10T05:27:02;2.42;;;1.55;;
23730;SDS011;12046;44.702;10.622;2022-07-10T05:29:28;2.45;;;1.58;;
23730;SDS011;12046;44.702;10.622;2022-07-10T05:31:54;3.63;;;1.67;;
23730;SDS011;12046;44.702;10.622;2022-07-10T05:34:20;3.28;;;1.98;;
23730;SDS011;12046;44.702;10.622;2022-07-10T05:36:46;2.45;;;1.55;;
23730;SDS011;12046;44.702;10.622;2022-07-10T05:39:12;3.35;;;1.63;;
23730;SDS011;12046;44.702;10.622;2022-07-10T05:41:38;2.65;;;1.55;;
23730;SDS011;12046;44.702;10.622;2022-07-10T05:44:04;1.42;;;1.33;;
23730;SDS011;12046;44.702;10.622;2022-07-10T05:46:30;1.45;;;1.27;;
23730;SDS011;12046;44.702;10.622;2022-07-10T05:48:56;2.22;;;1.67;;
23730;SDS011;12046;44.702;10.622;2022-07-10T05:51:22;4.05;;;1.70;;
23730;SDS011;12046;44.702;10.622;2022-07-10T05:53:48;4.45;;;1.58;;
23730;SDS011;12046;44.702;10.622;2022-07-10T05:56:14;1.85;;;1.30;;
23730;SDS011;12046;44.702;10.622;2022-07-10T05:58:40;4.35;;;1.40;;
23730;SDS011;12046;44.702;10.622;2022-07-10T06:01:06;2.53;;;1.25;;
23730;SDS011;12046;44.702;10.622;2022-07-10T06:03:32;3.10;;;1.02;;
23730;SDS011;12046;44.702;10.622;2022-07-10T06:05:58;4.53;;;1.45;;
23730;SDS011;12046;44.702;10.622;2022-07-10T06:08:24;4.50;;;1.27;;
23730;SDS011;12046;44.702;10.622;2022-07-10T06:10:50;3.58;;;1.25;;
23730;SDS011;12046;44.702;10.622;2022-07-10T06:13:16;1.25;;;1.02;;
23730;SDS011;12046;44.702;10.622;2022-07-10T06:15:44;3.38;;;0.95;;
23730;SDS011;12046;44.702;10.622;2022-07-10T06:18:10;1.00;;;0.90;;
23730;SDS011;12046;44.702;10.622;2022-07-10T06:20:36;0.82;;;0.63;;
23730;SDS011;12046;44.702;10.622;2022-07-10T06:23:01;4.22;;;1.00;;
23730;SDS011;12046;44.702;10.622;2022-07-10T06:25:27;2.88;;;0.82;;
23730;SDS011;12046;44.702;10.622;2022-07-10T06:27:53;0.93;;;0.80;;
23730;SDS011;12046;44.702;10.622;2022-07-10T06:30:20;1.15;;;0.77;;
23730;SDS011;12046;44.702;10.622;2022-07-10T06:32:46;1.30;;;0.70;;
23730;SDS011;12046;44.702;10.622;2022-07-10T06:35:12;2.03;;;1.00;;
23730;SDS011;12046;44.702;10.622;2022-07-10T06:37:37;1.73;;;0.77;;
23730;SDS011;12046;44.702;10.622;2022-07-10T06:40:04;1.50;;;0.90;;
23730;SDS011;12046;44.702;10.622;2022-07-10T06:42:30;1.80;;;1.00;;
23730;SDS011;12046;44.702;10.622;2022-07-10T06:44:56;1.83;;;0.93;;
23730;SDS011;12046;44.702;10.622;2022-07-10T06:47:22;1.10;;;1.00;;
23730;SDS011;12046;44.702;10.622;2022-07-10T06:50:09;0.93;;;0.90;;
23730;SDS011;12046;44.702;10.622;2022-07-10T06:52:35;1.08;;;0.93;;
23730;SDS011;12046;44.702;10.622;2022-07-10T06:55:02;3.25;;;1.00;;
23730;SDS011;12046;44.702;10.622;2022-07-10T06:57:29;2.70;;;1.00;;
23730;SDS011;12046;44.702;10.622;2022-07-10T06:59:55;2.75;;;0.90;;
23730;SDS011;12046;44.702;10.622;2022-07-10T07:02:21;8.35;;;1.35;;
23730;SDS011;12046;44.702;10.622;2022-07-10T07:04:47;2.13;;;1.13;;
23730;SDS011;12046;44.702;10.622;2022-07-10T07:07:13;2.75;;;1.10;;
23730;SDS011;12046;44.702;10.622;2022-07-10T07:09:40;3.58;;;1.20;;
23730;SDS011;12046;44.702;10.622;2022-07-10T07:12:07;1.40;;;1.15;;
23730;SDS011;12046;44.702;10.622;2022-07-10T07:14:34;2.97;;;1.00;;
23730;SDS011;12046;44.702;10.622;2022-07-10T07:17:00;2.05;;;0.85;;
23730;SDS011;12046;44.702;10.622;2022-07-10T07:19:34;2.25;;;1.45;;
23730;SDS011;12046;44.702;10.622;2022-07-10T07:22:20;3.55;;;1.20;;
23730;SDS011;12046;44.702;10.622;2022-07-10T07:25:05;2.10;;;1.10;;
23730;SDS011;12046;44.702;10.622;2022-07-10T07:27:35;4.43;;;1.00;;
23730;SDS011;12046;44.702;10.622;2022-07-10T07:30:09;2.10;;;1.02;;
23730;SDS011;12046;44.702;10.622;2022-07-10T07:32:37;1.73;;;1.10;;
23730;SDS011;12046;44.702;10.622;2022-07-10T07:35:04;2.80;;;1.27;;
23730;SDS011;12046;44.702;10.622;2022-07-10T07:37:43;1.80;;;1.27;;
23730;SDS011;12046;44.702;10.622;2022-07-10T07:40:11;1.80;;;0.90;;
23730;SDS011;12046;44.702;10.622;2022-07-10T07:42:39;1.35;;;0.95;;
23730;SDS011;12046;44.702;10.622;2022-07-10T07:45:06;3.65;;;1.00;;
23730;SDS011;12046;44.702;10.622;2022-07-10T07:48:06;1.30;;;0.85;;
23730;SDS011;12046;44.702;10.622;2022-07-10T07:50:33;3.15;;;0.90;;
23730;SDS011;12046;44.702;10.622;2022-07-10T07:53:01;1.73;;;1.00;;
23730;SDS011;12046;44.702;10.622;2022-07-10T07:55:28;1.67;;;1.30;;
23730;SDS011;12046;44.702;10.622;2022-07-10T07:57:55;2.72;;;1.15;;
23730;SDS011;12046;44.702;10.622;2022-07-10T08:00:23;2.38;;;1.10;;
23730;SDS011;12046;44.702;10.622;2022-07-10T08:02:50;1.30;;;0.90;;
23730;SDS011;12046;44.702;10.622;2022-07-10T08:05:17;1.35;;;0.85;;
23730;SDS011;12046;44.702;10.622;2022-07-10T08:07:45;1.20;;;1.00;;
23730;SDS011;12046;44.702;10.622;2022-07-10T08:10:16;3.88;;;1.20;;
23730;SDS011;12046;44.702;10.622;2022-07-10T08:12:44;3.70;;;0.88;;
23730;SDS011;12046;44.702;10.622;2022-07-10T08:15:11;2.10;;;1.10;;
23730;SDS011;12046;44.702;10.622;2022-07-10T08:17:39;3.92;;;1.10;;
23730;SDS011;12046;44.702;10.622;2022-07-10T08:20:06;2.35;;;0.98;;
23730;SDS011;12046;44.702;10.622;2022-07-10T08:22:34;1.55;;;1.45;;
23730;SDS011;12046;44.702;10.622;2022-07-10T08:25:00;1.88;;;1.20;;
23730;SDS011;12046;44.702;10.622;2022-07-10T08:27:26;2.40;;;1.00;;
23730;SDS011;12046;44.702;10.622;2022-07-10T08:29:52;1.95;;;1.05;;
23730;SDS011;12046;44.702;10.622;2022-07-10T08:32:18;1.48;;;0.90;;
23730;SDS011;12046;44.702;10.622;2022-07-10T08:34:44;1.63;;;0.77;;
23730;SDS011;12046;44.702;10.622;2022-07-10T08:37:13;1.27;;;1.00;;
23730;SDS011;12046;44.702;10.622;2022-07-10T08:39:40;1.80;;;1.27;;
23730;SDS011;12046;44.702;10.622;2022-07-10T08:42:06;2.15;;;0.95;;
23730;SDS011;12046;44.702;10.622;2022-07-10T08:44:33;2.55;;;1.00;;
23730;SDS011;12046;44.702;10.622;2022-07-10T08:46:59;1.58;;;1.00;;
23730;SDS011;12046;44.702;10.622;2022-07-10T08:49:28;2.15;;;0.88;;
23730;SDS011;12046;44.702;10.622;2022-07-10T08:52:03;1.85;;;0.70;;
23730;SDS011;12046;44.702;10.622;2022-07-10T08:54:31;0.60;;;0.60;;
23730;SDS011;12046;44.702;10.622;2022-07-10T08:56:59;1.33;;;0.80;;
23730;SDS011;12046;44.702;10.622;2022-07-10T08:59:26;1.17;;;0.80;;
23730;SDS011;12046;44.702;10.622;2022-07-10T09:01:53;1.73;;;1.00;;
23730;SDS011;12046;44.702;10.622;2022-07-10T09:04:21;0.70;;;0.70;;
23730;SDS011;12046;44.702;10.622;2022-07-10T09:06:52;2.65;;;0.75;;
23730;SDS011;12046;44.702;10.622;2022-07-10T09:09:19;2.17;;;0.90;;
23730;SDS011;12046;44.702;10.622;2022-07-10T09:12:00;2.05;;;0.90;;
23730;SDS011;12046;44.702;10.622;2022-07-10T09:14:27;2.67;;;0.90;;
23730;SDS011;12046;44.702;10.622;2022-07-10T09:16:57;2.97;;;0.98;;
23730;SDS011;12046;44.702;10.622;2022-07-10T09:19:24;2.65;;;1.00;;
23730;SDS011;12046;44.702;10.622;2022-07-10T09:21:53;2.58;;;0.73;;
23730;SDS011;12046;44.702;10.622;2022-07-10T09:24:43;1.80;;;0.73;;
23730;SDS011;12046;44.702;10.622;2022-07-10T09:27:11;2.08;;;1.05;;
23730;SDS011;12046;44.702;10.622;2022-07-10T09:29:46;1.42;;;0.85;;
23730;SDS011;12046;44.702;10.622;2022-07-10T09:32:15;2.45;;;1.10;;
23730;SDS011;12046;44.702;10.622;2022-07-10T09:34:48;2.50;;;1.13;;
23730;SDS011;12046;44.702;10.622;2022-07-10T09:37:38;2.27;;;1.13;;
23730;SDS011;12046;44.702;10.622;2022-07-10T09:40:09;1.37;;;0.80;;
23730;SDS011;12046;44.702;10.622;2022-07-10T09:42:39;1.98;;;0.90;;
23730;SDS011;12046;44.702;10.622;2022-07-10T09:47:58;2.97;;;0.88;;
23730;SDS011;12046;44.702;10.622;2022-07-10T09:50:37;0.70;;;0.70;;
23730;SDS011;12046;44.702;10.622;2022-07-10T09:53:04;5.35;;;0.90;;
23730;SDS011;12046;44.702;10.622;2022-07-10T09:55:32;1.90;;;0.80;;
23730;SDS011;12046;44.702;10.622;2022-07-10T09:58:04;1.02;;;0.82;;
23730;SDS011;12046;44.702;10.622;2022-07-10T10:00:32;2.80;;;1.10;;
23730;SDS011;12046;44.702;10.622;2022-07-10T10:02:59;1.80;;;0.77;;
23730;SDS011;12046;44.702;10.622;2022-07-10T10:05:36;2.45;;;0.98;;
23730;SDS011;12046;44.702;10.622;2022-07-10T10:08:19;1.40;;;0.82;;
23730;SDS011;12046;44.702;10.622;2022-07-10T10:13:22;2.03;;;1.23;;
23730;SDS011;12046;44.702;10.622;2022-07-10T10:15:49;1.63;;;1.02;;
23730;SDS011;12046;44.702;10.622;2022-07-10T10:18:17;1.00;;;0.80;;
23730;SDS011;12046;44.702;10.622;2022-07-10T10:20:44;1.38;;;0.80;;
23730;SDS011;12046;44.702;10.622;2022-07-10T10:23:18;2.05;;;0.70;;
23730;SDS011;12046;44.702;10.622;2022-07-10T10:25:48;1.30;;;0.93;;
23730;SDS011;12046;44.702;10.622;2022-07-10T10:28:16;2.20;;;0.70;;
23730;SDS011;12046;44.702;10.622;2022-07-10T10:30:51;1.08;;;0.80;;
23730;SDS011;12046;44.702;10.622;2022-07-10T10:36:01;0.65;;;0.65;;
23730;SDS011;12046;44.702;10.622;2022-07-10T10:46:52;1.10;;;0.73;;
23730;SDS011;12046;44.702;10.622;2022-07-10T10:49:22;1.48;;;0.90;;
23730;SDS011;12046;44.702;10.622;2022-07-10T10:59:57;2.40;;;0.63;;
23730;SDS011;12046;44.702;10.622;2022-07-10T11:02:25;1.23;;;0.80;;
23730;SDS011;12046;44.702;10.622;2022-07-10T11:13:11;3.90;;;1.00;;
23730;SDS011;12046;44.702;10.622;2022-07-10T11:15:42;3.25;;;1.10;;
23730;SDS011;12046;44.702;10.622;2022-07-10T11:18:13;2.17;;;1.05;;
23730;SDS011;12046;44.702;10.622;2022-07-10T11:20:41;1.45;;;0.98;;
23730;SDS011;12046;44.702;10.622;2022-07-10T11:26:11;1.48;;;0.90;;
23730;SDS011;12046;44.702;10.622;2022-07-10T11:31:08;1.33;;;0.73;;
23730;SDS011;12046;44.702;10.622;2022-07-10T11:33:38;3.60;;;0.70;;
23730;SDS011;12046;44.702;10.622;2022-07-10T11:36:13;1.27;;;0.77;;
23730;SDS011;12046;44.702;10.622;2022-07-10T11:38:40;2.00;;;0.75;;
23730;SDS011;12046;44.702;10.622;2022-07-10T11:41:16;3.65;;;0.63;;
23730;SDS011;12046;44.702;10.622;2022-07-10T11:43:51;1.52;;;0.80;;
23730;SDS011;12046;44.702;10.622;2022-07-10T11:46:19;0.60;;;0.60;;
23730;SDS011;12046;44.702;10.622;2022-07-10T11:48:47;1.95;;;0.95;;
23730;SDS011;12046;44.702;10.622;2022-07-10T11:51:35;1.88;;;0.88;;
23730;SDS011;12046;44.702;10.622;2022-07-10T11:54:06;1.40;;;0.77;;
23730;SDS011;12046;44.702;10.622;2022-07-10T11:56:35;0.65;;;0.65;;
23730;SDS011;12046;44.702;10.622;2022-07-10T11:59:06;1.52;;;0.70;;
23730;SDS011;12046;44.702;10.622;2022-07-10T12:01:41;3.83;;;0.70;;
23730;SDS011;12046;44.702;10.622;2022-07-10T12:04:07;0.50;;;0.50;;
23730;SDS011;12046;44.702;10.622;2022-07-10T12:06:36;0.85;;;0.70;;
23730;SDS011;12046;44.702;10.622;2022-07-10T12:09:07;1.70;;;0.75;;
23730;SDS011;12046;44.702;10.622;2022-07-10T12:11:40;3.80;;;0.65;;
23730;SDS011;12046;44.702;10.622;2022-07-10T12:14:13;1.05;;;0.57;;
23730;SDS011;12046;44.702;10.622;2022-07-10T12:16:42;0.60;;;0.60;;
23730;SDS011;12046;44.702;10.622;2022-07-10T12:19:20;2.25;;;0.60;;
23730;SDS011;12046;44.702;10.622;2022-07-10T12:21:49;1.38;;;0.60;;
23730;SDS011;12046;44.702;10.622;2022-07-10T12:24:17;1.00;;;0.70;;
23730;SDS011;12046;44.702;10.622;2022-07-10T12:26:45;0.57;;;0.57;;
23730;SDS011;12046;44.702;10.622;2022-07-10T12:29:18;0.70;;;0.50;;
23730;SDS011;12046;44.702;10.622;2022-07-10T12:31:52;6.03;;;1.35;;
23730;SDS011;12046;44.702;10.622;2022-07-10T12:34:20;1.35;;;1.25;;
23730;SDS011;12046;44.702;10.622;2022-07-10T12:37:08;3.33;;;1.40;;
23730;SDS011;12046;44.702;10.622;2022-07-10T12:39:36;2.80;;;0.85;;
23730;SDS011;12046;44.702;10.622;2022-07-10T12:42:06;1.88;;;1.23;;
23730;SDS011;12046;44.702;10.622;2022-07-10T12:44:53;1.35;;;0.73;;
23730;SDS011;12046;44.702;10.622;2022-07-10T12:47:19;2.50;;;0.57;;
23730;SDS011;12046;44.702;10.622;2022-07-10T12:49:47;1.63;;;0.52;;
23730;SDS011;12046;44.702;10.622;2022-07-10T12:52:28;1.00;;;0.70;;
23730;SDS011;12046;44.702;10.622;2022-07-10T12:57:48;0.60;;;0.60;;
23730;SDS011;12046;44.702;10.622;2022-07-10T13:00:20;2.13;;;0.70;;
23730;SDS011;12046;44.702;10.622;2022-07-10T13:05:49;1.27;;;0.60;;
23730;SDS011;12046;44.702;10.622;2022-07-10T13:08:16;2.72;;;0.88;;
23730;SDS011;12046;44.702;10.622;2022-07-10T13:10:49;0.77;;;0.40;;
23730;SDS011;12046;44.702;10.622;2022-07-10T13:13:19;1.08;;;0.35;;
23730;SDS011;12046;44.702;10.622;2022-07-10T13:15:45;0.80;;;0.60;;
23730;SDS011;12046;44.702;10.622;2022-07-10T13:18:16;1.35;;;0.50;;
23730;SDS011;12046;44.702;10.622;2022-07-10T13:20:49;0.60;;;0.52;;
23730;SDS011;12046;44.702;10.622;2022-07-10T13:23:20;1.88;;;0.60;;
23730;SDS011;12046;44.702;10.622;2022-07-10T13:25:54;0.40;;;0.40;;
23730;SDS011;12046;44.702;10.622;2022-07-10T13:28:20;1.73;;;0.65;;
23730;SDS011;12046;44.702;10.622;2022-07-10T13:30:46;0.52;;;0.52;;
23730;SDS011;12046;44.702;10.622;2022-07-10T13:33:13;1.77;;;0.65;;
23730;SDS011;12046;44.702;10.622;2022-07-10T13:35:40;0.65;;;0.60;;
23730;SDS011;12046;44.702;10.622;2022-07-10T13:38:06;2.20;;;0.57;;
23730;SDS011;12046;44.702;10.622;2022-07-10T13:40:33;1.38;;;0.55;;
23730;SDS011;12046;44.702;10.622;2022-07-10T13:43:00;0.80;;;0.60;;
23730;SDS011;12046;44.702;10.622;2022-07-10T13:45:27;1.02;;;0.80;;
23730;SDS011;12046;44.702;10.622;2022-07-10T13:48:02;0.63;;;0.60;;
23730;SDS011;12046;44.702;10.622;2022-07-10T13:50:29;0.50;;;0.50;;
23730;SDS011;12046;44.702;10.622;2022-07-10T13:52:55;1.48;;;0.50;;
23730;SDS011;12046;44.702;10.622;2022-07-10T13:55:21;0.68;;;0.50;;
23730;SDS011;12046;44.702;10.622;2022-07-10T13:57:48;1.08;;;0.50;;
23730;SDS011;12046;44.702;10.622;2022-07-10T14:00:14;0.47;;;0.47;;
23730;SDS011;12046;44.702;10.622;2022-07-10T14:02:40;0.85;;;0.63;;
23730;SDS011;12046;44.702;10.622;2022-07-10T14:05:06;0.95;;;0.50;;
23730;SDS011;12046;44.702;10.622;2022-07-10T14:07:36;2.92;;;0.57;;
23730;SDS011;12046;44.702;10.622;2022-07-10T14:10:02;0.82;;;0.73;;
23730;SDS011;12046;44.702;10.622;2022-07-10T14:12:30;0.43;;;0.43;;
23730;SDS011;12046;44.702;10.622;2022-07-10T14:14:57;1.27;;;0.55;;
23730;SDS011;12046;44.702;10.622;2022-07-10T14:17:23;1.42;;;0.52;;
23730;SDS011;12046;44.702;10.622;2022-07-10T14:19:50;0.70;;;0.50;;
23730;SDS011;12046;44.702;10.622;2022-07-10T14:22:16;0.95;;;0.60;;
23730;SDS011;12046;44.702;10.622;2022-07-10T14:24:42;0.63;;;0.40;;
23730;SDS011;12046;44.702;10.622;2022-07-10T14:27:08;0.80;;;0.40;;
23730;SDS011;12046;44.702;10.622;2022-07-10T14:29:36;0.52;;;0.52;;
23730;SDS011;12046;44.702;10.622;2022-07-10T14:32:02;0.90;;;0.40;;
23730;SDS011;12046;44.702;10.622;2022-07-10T14:34:29;0.40;;;0.40;;
23730;SDS011;12046;44.702;10.622;2022-07-10T14:36:55;1.05;;;0.50;;
23730;SDS011;12046;44.702;10.622;2022-07-10T14:39:21;0.80;;;0.50;;
23730;SDS011;12046;44.702;10.622;2022-07-10T14:41:47;0.50;;;0.50;;
23730;SDS011;12046;44.702;10.622;2022-07-10T14:44:13;0.43;;;0.43;;
23730;SDS011;12046;44.702;10.622;2022-07-10T14:46:39;1.80;;;0.50;;
23730;SDS011;12046;44.702;10.622;2022-07-10T14:49:05;2.53;;;0.50;;
23730;SDS011;12046;44.702;10.622;2022-07-10T14:51:31;1.38;;;0.93;;
23730;SDS011;12046;44.702;10.622;2022-07-10T14:53:59;3.20;;;1.05;;
23730;SDS011;12046;44.702;10.622;2022-07-10T14:56:25;0.63;;;0.45;;
23730;SDS011;12046;44.702;10.622;2022-07-10T14:58:51;0.65;;;0.50;;
23730;SDS011;12046;44.702;10.622;2022-07-10T15:01:17;2.53;;;0.82;;
23730;SDS011;12046;44.702;10.622;2022-07-10T15:03:44;1.40;;;0.60;;
23730;SDS011;12046;44.702;10.622;2022-07-10T15:06:10;3.03;;;0.90;;
23730;SDS011;12046;44.702;10.622;2022-07-10T15:08:36;1.15;;;0.40;;
23730;SDS011;12046;44.702;10.622;2022-07-10T15:11:02;2.47;;;0.82;;
23730;SDS011;12046;44.702;10.622;2022-07-10T15:13:30;3.05;;;0.60;;
23730;SDS011;12046;44.702;10.622;2022-07-10T15:15:56;1.63;;;0.88;;
23730;SDS011;12046;44.702;10.622;2022-07-10T15:18:22;1.00;;;0.77;;
23730;SDS011;12046;44.702;10.622;2022-07-10T15:20:51;3.25;;;0.60;;
23730;SDS011;12046;44.702;10.622;2022-07-10T15:23:17;1.50;;;0.40;;